Time;durP1;ratioP1;P1;durP2;ratioP2;P2;SDS_P1;SDS_P2;PMS_P1;PMS_P2;Temp;Humidity;BMP_temperature;BMP_pressure;BME280_temperature;BME280_humidity;BME280_pressure;Samples;Min_cycle;Max_cycle;Signal;HPM_P1;HPM_P2
2023/12/05 00:01:38;;;;;;;14.40;6.43;;;;;;;;;;4989078;28;20065;-79
2023/12/05 00:04:05;;;;;;;12.05;6.43;;;;;;;;;;4990662;28;20112;-79
2023/12/05 00:06:31;;;;;;;15.15;6.85;;;;;;;;;;4988056;28;20030;-78
2023/12/05 00:08:57;;;;;;;10.35;5.75;;;;;;;;;;4988539;28;20121;-79
2023/12/05 00:11:23;;;;;;;10.93;6.45;;;;;;;;;;4989093;28;20042;-79
2023/12/05 00:13:48;;;;;;;11.38;5.93;;;;;;;;;;4991164;28;20026;-79
2023/12/05 00:16:14;;;;;;;11.57;6.30;;;;;;;;;;4999106;28;20057;-80
2023/12/05 00:18:44;;;;;;;12.10;5.65;;;;;;;;;;4997748;28;20058;-79
2023/12/05 00:21:10;;;;;;;9.85;5.78;;;;;;;;;;5002413;28;20437;-79
2023/12/05 00:23:36;;;;;;;13.60;7.38;;;;;;;;;;4998090;28;20030;-79
2023/12/05 00:26:02;;;;;;;12.25;6.18;;;;;;;;;;4993530;28;20113;-80
2023/12/05 00:28:27;;;;;;;10.77;6.18;;;;;;;;;;5003042;28;20432;-79
2023/12/05 00:30:53;;;;;;;17.85;6.82;;;;;;;;;;4999197;28;20105;-80
2023/12/05 00:33:19;;;;;;;20.08;7.30;;;;;;;;;;5000568;28;20034;-80
2023/12/05 00:35:45;;;;;;;12.30;5.75;;;;;;;;;;5004222;28;20093;-79
2023/12/05 00:38:11;;;;;;;11.73;7.00;;;;;;;;;;4995659;28;20033;-79
2023/12/05 00:40:37;;;;;;;12.73;5.70;;;;;;;;;;4986377;28;20033;-79
2023/12/05 00:43:03;;;;;;;18.55;7.05;;;;;;;;;;4985759;28;20499;-80
2023/12/05 00:45:29;;;;;;;11.00;6.20;;;;;;;;;;4981637;28;20486;-79
2023/12/05 00:47:55;;;;;;;12.95;6.35;;;;;;;;;;4982020;28;20026;-79
2023/12/05 00:50:21;;;;;;;12.57;5.75;;;;;;;;;;4982701;28;20038;-79
2023/12/05 00:52:47;;;;;;;10.70;5.10;;;;;;;;;;4994148;28;20006;-80
2023/12/05 00:55:13;;;;;;;10.88;6.00;;;;;;;;;;4993201;28;20046;-80
2023/12/05 00:57:39;;;;;;;10.32;5.25;;;;;;;;;;4995387;28;20449;-79
2023/12/05 01:00:09;;;;;;;8.13;4.45;;;;;;;;;;4995788;28;20014;-79
2023/12/05 01:02:35;;;;;;;12.70;6.22;;;;;;;;;;4996366;28;20059;-79
2023/12/05 01:05:02;;;;;;;14.55;6.25;;;;;;;;;;4997769;28;20078;-78
2023/12/05 01:07:28;;;;;;;12.80;6.00;;;;;;;;;;4980441;28;20033;-79
2023/12/05 01:09:54;;;;;;;10.02;4.78;;;;;;;;;;4984917;28;20038;-78
2023/12/05 01:12:20;;;;;;;12.18;6.45;;;;;;;;;;4998259;28;20137;-80
2023/12/05 01:14:46;;;;;;;11.32;6.05;;;;;;;;;;4995632;28;20050;-79
2023/12/05 01:17:13;;;;;;;9.80;5.25;;;;;;;;;;4996455;28;20113;-79
2023/12/05 01:19:39;;;;;;;10.35;6.05;;;;;;;;;;4984370;28;20058;-80
2023/12/05 01:22:05;;;;;;;9.27;5.10;;;;;;;;;;4996221;28;20031;-79
2023/12/05 01:24:31;;;;;;;11.63;6.05;;;;;;;;;;4995958;28;20701;-79
2023/12/05 01:26:57;;;;;;;13.30;5.57;;;;;;;;;;4999806;28;20121;-79
2023/12/05 01:29:23;;;;;;;12.02;5.72;;;;;;;;;;4995139;28;20023;-80
2023/12/05 01:31:49;;;;;;;13.15;6.07;;;;;;;;;;4996599;28;20275;-79
2023/12/05 01:34:15;;;;;;;9.15;4.78;;;;;;;;;;4997854;28;20041;-80
2023/12/05 01:36:42;;;;;;;13.88;4.63;;;;;;;;;;4997813;28;20030;-79
2023/12/05 01:39:12;;;;;;;13.60;5.47;;;;;;;;;;4993504;28;20018;-80
2023/12/05 01:41:38;;;;;;;9.50;4.03;;;;;;;;;;4995344;28;20528;-80
2023/12/05 01:44:04;;;;;;;10.82;5.28;;;;;;;;;;4994627;28;20153;-80
2023/12/05 01:46:30;;;;;;;10.73;4.95;;;;;;;;;;4980571;28;20026;-80
2023/12/05 01:48:56;;;;;;;11.68;5.65;;;;;;;;;;4996998;28;20035;-79
2023/12/05 01:51:22;;;;;;;9.25;4.97;;;;;;;;;;4996311;28;20121;-80
2023/12/05 01:53:48;;;;;;;11.93;4.55;;;;;;;;;;4997873;28;20392;-79
2023/12/05 01:56:15;;;;;;;12.45;5.47;;;;;;;;;;4997156;28;20022;-80
2023/12/05 01:58:41;;;;;;;9.43;4.93;;;;;;;;;;4997204;28;20075;-80
2023/12/05 02:01:08;;;;;;;8.30;4.50;;;;;;;;;;4997183;28;20026;-80
2023/12/05 02:03:35;;;;;;;10.38;4.82;;;;;;;;;;4991896;28;20141;-80
2023/12/05 02:06:02;;;;;;;10.30;4.88;;;;;;;;;;4996889;28;20052;-80
2023/12/05 02:08:29;;;;;;;10.15;4.72;;;;;;;;;;4995501;28;20226;-80
2023/12/05 02:10:55;;;;;;;11.40;5.78;;;;;;;;;;4998022;28;20018;-80
2023/12/05 02:13:21;;;;;;;9.85;4.63;;;;;;;;;;4998875;28;20110;-79
2023/12/05 02:15:49;;;;;;;9.52;5.63;;;;;;;;;;4994402;28;20122;-80
2023/12/05 02:18:16;;;;;;;11.07;4.47;;;;;;;;;;5000246;28;20045;-80
2023/12/05 02:21:02;;;;;;;9.52;5.47;;;;;;;;;;4992313;28;20505;-80
2023/12/05 02:23:54;;;;;;;9.48;4.82;;;;;;;;;;4996523;28;20042;-81
2023/12/05 02:26:20;;;;;;;11.30;4.75;;;;;;;;;;4995965;28;20049;-80
2023/12/05 02:28:46;;;;;;;12.15;5.45;;;;;;;;;;4995727;28;20512;-81
2023/12/05 02:31:12;;;;;;;8.68;5.22;;;;;;;;;;4991137;28;20088;-80
2023/12/05 02:33:39;;;;;;;12.63;5.75;;;;;;;;;;4996538;28;20902;-80
2023/12/05 02:36:19;;;;;;;10.35;5.30;;;;;;;;;;4995875;28;20381;-80
2023/12/05 02:38:57;;;;;;;13.88;5.70;;;;;;;;;;4996541;28;20010;-80
2023/12/05 02:41:25;;;;;;;10.02;4.57;;;;;;;;;;5004174;28;20444;-81
2023/12/05 02:43:58;;;;;;;12.20;6.38;;;;;;;;;;4999363;28;20045;-81
2023/12/05 02:46:25;;;;;;;8.30;4.38;;;;;;;;;;5003018;28;20066;-81
2023/12/05 02:48:51;;;;;;;11.25;4.95;;;;;;;;;;5003908;28;20030;-80
2023/12/05 02:51:17;;;;;;;11.40;4.90;;;;;;;;;;5004835;28;20034;-81
2023/12/05 02:53:43;;;;;;;8.20;4.78;;;;;;;;;;5004110;28;20309;-81
2023/12/05 02:56:09;;;;;;;12.38;4.88;;;;;;;;;;4995755;28;20501;-81
2023/12/05 02:58:35;;;;;;;9.35;4.82;;;;;;;;;;5002303;28;20049;-81
2023/12/05 03:01:02;;;;;;;14.85;5.82;;;;;;;;;;4998202;28;20034;-81
2023/12/05 03:03:28;;;;;;;12.00;6.13;;;;;;;;;;5001416;28;20061;-81
2023/12/05 03:05:54;;;;;;;9.77;4.65;;;;;;;;;;4999574;28;20037;-81
2023/12/05 03:08:20;;;;;;;8.95;4.90;;;;;;;;;;4998049;28;20174;-82
2023/12/05 03:10:46;;;;;;;9.88;5.03;;;;;;;;;;4999821;28;20037;-81
2023/12/05 03:13:12;;;;;;;10.85;5.20;;;;;;;;;;4996426;28;20038;-81
2023/12/05 03:15:38;;;;;;;10.88;4.90;;;;;;;;;;4995172;28;20026;-82
2023/12/05 03:18:04;;;;;;;10.27;5.15;;;;;;;;;;4997283;28;20030;-81
2023/12/05 03:20:30;;;;;;;10.55;4.55;;;;;;;;;;4997014;28;20018;-82
2023/12/05 03:22:55;;;;;;;12.70;5.35;;;;;;;;;;4996303;28;20409;-81
2023/12/05 03:25:21;;;;;;;7.85;4.68;;;;;;;;;;4997820;28;20121;-82
2023/12/05 03:27:47;;;;;;;9.43;4.68;;;;;;;;;;4994129;28;20018;-81
2023/12/05 03:30:13;;;;;;;12.57;5.70;;;;;;;;;;4995685;28;20030;-81
2023/12/05 03:32:39;;;;;;;9.27;5.35;;;;;;;;;;4994761;28;20945;-82
2023/12/05 03:35:05;;;;;;;8.90;5.05;;;;;;;;;;4996386;28;20030;-81
2023/12/05 03:37:31;;;;;;;8.15;3.88;;;;;;;;;;5000307;28;20098;-82
2023/12/05 03:39:57;;;;;;;10.23;4.78;;;;;;;;;;4975175;28;20698;-82
2023/12/05 03:42:23;;;;;;;9.73;4.45;;;;;;;;;;5002214;28;20034;-82
2023/12/05 03:44:49;;;;;;;15.48;4.70;;;;;;;;;;4996569;28;20078;-81
2023/12/05 03:47:15;;;;;;;11.13;6.25;;;;;;;;;;4999584;28;20402;-82
2023/12/05 03:49:41;;;;;;;12.75;5.53;;;;;;;;;;4998054;28;20393;-81
2023/12/05 03:52:07;;;;;;;16.50;4.88;;;;;;;;;;4997218;28;20465;-81
2023/12/05 03:54:33;;;;;;;9.52;4.88;;;;;;;;;;4996633;28;20796;-81
2023/12/05 03:56:59;;;;;;;11.18;4.65;;;;;;;;;;4994789;28;20412;-81
2023/12/05 03:59:25;;;;;;;9.48;5.07;;;;;;;;;;4991512;28;20472;-81
2023/12/05 04:01:51;;;;;;;13.05;5.78;;;;;;;;;;4996794;28;20037;-81
2023/12/05 04:04:17;;;;;;;12.85;4.78;;;;;;;;;;4999444;28;20114;-82
2023/12/05 04:06:42;;;;;;;8.68;4.93;;;;;;;;;;4995584;28;20050;-80
2023/12/05 04:09:08;;;;;;;8.23;4.55;;;;;;;;;;4987555;28;20109;-80
2023/12/05 04:11:34;;;;;;;9.63;5.22;;;;;;;;;;4991836;28;20022;-81
2023/12/05 04:14:01;;;;;;;9.48;5.40;;;;;;;;;;4990946;28;20045;-80
2023/12/05 04:16:27;;;;;;;11.13;4.88;;;;;;;;;;4989800;28;20025;-81
2023/12/05 04:18:53;;;;;;;8.07;4.68;;;;;;;;;;4990743;28;20130;-80
2023/12/05 04:21:19;;;;;;;7.32;4.38;;;;;;;;;;4973229;28;20489;-80
2023/12/05 04:23:45;;;;;;;10.15;5.43;;;;;;;;;;4988581;28;20061;-80
2023/12/05 04:26:15;;;;;;;10.75;5.78;;;;;;;;;;4987926;28;20058;-81
2023/12/05 04:28:41;;;;;;;10.23;4.22;;;;;;;;;;4989450;28;20035;-80
2023/12/05 04:31:07;;;;;;;9.13;4.68;;;;;;;;;;4985716;28;20038;-80
2023/12/05 04:33:33;;;;;;;9.57;3.42;;;;;;;;;;4986303;28;20504;-80
2023/12/05 04:35:59;;;;;;;14.23;4.00;;;;;;;;;;4990736;28;20030;-80
2023/12/05 04:38:25;;;;;;;7.55;3.88;;;;;;;;;;4990492;28;20034;-80
2023/12/05 04:40:51;;;;;;;7.82;4.00;;;;;;;;;;4989706;28;20038;-82
2023/12/05 04:43:17;;;;;;;8.95;4.28;;;;;;;;;;4988828;28;20034;-81
2023/12/05 04:45:43;;;;;;;5.85;3.92;;;;;;;;;;4985797;28;20063;-81
2023/12/05 04:48:09;;;;;;;11.43;4.65;;;1.00;99.90;;;;;;4984663;28;20027;-81
2023/12/05 04:50:34;;;;;;;6.50;3.33;;;;;;;;;;4989514;28;20492;-80
2023/12/05 04:53:00;;;;;;;7.35;3.40;;;;;;;;;;4988509;28;20109;-80
2023/12/05 04:55:26;;;;;;;8.60;3.80;;;;;;;;;;4991733;28;20026;-81
2023/12/05 04:57:52;;;;;;;11.43;2.70;;;;;;;;;;4992157;28;20036;-81
2023/12/05 05:00:18;;;;;;;7.07;3.05;;;;;;;;;;4989153;28;20046;-80
2023/12/05 05:02:44;;;;;;;4.60;2.78;;;;;;;;;;4975920;28;20370;-80
2023/12/05 05:05:13;;;;;;;6.57;3.42;;;2.00;99.90;;;;;;4989444;28;20045;-79
2023/12/05 05:07:39;;;;;;;9.10;3.40;;;;;;;;;;4987562;28;20038;-80
2023/12/05 05:10:06;;;;;;;5.05;2.35;;;;;;;;;;4995947;28;20093;-81
2023/12/05 05:12:32;;;;;;;6.15;2.60;;;;;;;;;;4997590;28;20058;-79
2023/12/05 05:14:58;;;;;;;7.07;2.95;;;;;;;;;;4994884;28;20069;-79
2023/12/05 05:17:23;;;;;;;6.65;3.10;;;;;;;;;;4991074;28;20320;-79
2023/12/05 05:19:49;;;;;;;7.60;2.28;;;;;;;;;;4989303;28;20042;-79
2023/12/05 05:22:15;;;;;;;11.10;3.55;;;;;;;;;;4982002;28;20039;-80
2023/12/05 05:24:41;;;;;;;7.97;3.58;;;;;;;;;;4989010;28;20062;-80
2023/12/05 05:27:07;;;;;;;6.72;2.67;;;;;;;;;;4991686;28;20037;-80
2023/12/05 05:29:33;;;;;;;6.30;3.80;;;;;;;;;;4990185;28;20035;-80
2023/12/05 05:31:59;;;;;;;6.80;3.47;;;;;;;;;;4971611;28;20046;-80
2023/12/05 05:34:25;;;;;;;6.32;3.58;;;;;;;;;;4990655;28;20034;-80
2023/12/05 05:36:51;;;;;;;5.53;2.08;;;;;;;;;;4988095;28;20034;-80
2023/12/05 05:39:17;;;;;;;8.50;3.28;;;;;;;;;;4988658;28;20041;-80
2023/12/05 05:41:43;;;;;;;6.15;3.22;;;;;;;;;;4988772;28;20038;-79
2023/12/05 05:44:09;;;;;;;7.03;2.88;;;;;;;;;;4986347;28;20085;-80
2023/12/05 05:46:35;;;;;;;7.70;3.03;;;;;;;;;;5001838;28;20062;-81
2023/12/05 05:49:01;;;;;;;5.95;3.45;;;;;;;;;;5004367;28;20030;-81
2023/12/05 05:51:27;;;;;;;6.07;3.30;;;;;;;;;;4995385;28;20239;-81
2023/12/05 05:53:55;;;;;;;9.68;3.75;;;;;;;;;;4990339;28;20026;-81
2023/12/05 05:56:21;;;;;;;5.43;2.75;;;;;;;;;;4990022;28;20030;-82
2023/12/05 05:58:47;;;;;;;7.68;3.47;;;;;;;;;;4993913;28;20038;-82
2023/12/05 06:01:13;;;;;;;7.47;3.95;;;;;;;;;;4997101;28;20026;-81
2023/12/05 06:03:41;;;;;;;8.70;3.03;;;;;;;;;;4991991;28;20058;-80
2023/12/05 06:06:07;;;;;;;6.22;3.10;;;;;;;;;;4995891;28;20062;-81
2023/12/05 06:08:33;;;;;;;6.95;3.85;;;;;;;;;;4992727;28;20445;-80
2023/12/05 06:10:59;;;;;;;6.43;3.13;;;;;;;;;;4997180;28;20374;-80
2023/12/05 06:13:25;;;;;;;6.88;2.83;;;2.00;99.90;;;;;;4982969;28;20029;-80
2023/12/05 06:15:51;;;;;;;6.35;3.10;;;;;;;;;;4989164;28;20026;-80
2023/12/05 06:18:17;;;;;;;5.20;2.92;;;;;;;;;;4987839;28;20476;-80
2023/12/05 06:20:43;;;;;;;4.35;2.08;;;;;;;;;;4988476;28;20030;-79
2023/12/05 06:23:10;;;;;;;4.00;2.45;;;;;;;;;;4982383;28;20038;-79
2023/12/05 06:25:36;;;;;;;5.65;2.63;;;;;;;;;;4985206;28;20521;-80
2023/12/05 06:28:02;;;;;;;9.52;3.35;;;;;;;;;;4984021;28;20026;-79
2023/12/05 06:30:28;;;;;;;4.75;3.25;;;;;;;;;;4984503;28;20587;-80
2023/12/05 06:32:54;;;;;;;7.22;3.55;;;;;;;;;;4986592;28;20379;-80
2023/12/05 06:35:20;;;;;;;8.35;4.45;;;;;;;;;;4986978;28;20206;-79
2023/12/05 06:37:46;;;;;;;10.85;5.50;;;;;;;;;;4978983;28;20532;-80
2023/12/05 06:40:12;;;;;;;12.40;6.00;;;;;;;;;;4979915;28;20034;-80
2023/12/05 06:42:40;;;;;;;10.70;6.25;;;;;;;;;;4980479;28;20568;-79
2023/12/05 06:45:06;;;;;;;9.15;4.32;;;;;;;;;;4980763;28;20788;-79
2023/12/05 06:47:33;;;;;;;14.10;5.95;;;;;;;;;;4984415;28;20049;-79
2023/12/05 06:50:02;;;;;;;13.07;4.90;;;;;;;;;;4983699;28;20034;-79
2023/12/05 06:52:28;;;;;;;5.95;3.60;;;;;;;;;;4985923;28;20023;-80
2023/12/05 06:54:54;;;;;;;8.40;3.42;;;;;;;;;;4987458;28;20528;-79
2023/12/05 06:57:20;;;;;;;5.55;3.72;;;;;;;;;;4991181;28;20038;-80
2023/12/05 06:59:46;;;;;;;4.13;2.35;;;;;;;;;;4989675;28;20401;-79
2023/12/05 07:02:12;;;;;;;14.57;2.78;;;;;;;;;;4993410;28;20025;-80
2023/12/05 07:04:38;;;;;;;7.60;3.15;;;;;;;;;;4987951;28;20018;-79
2023/12/05 07:07:04;;;;;;;13.05;5.45;;;;;;;;;;4988523;28;20026;-79
2023/12/05 07:09:30;;;;;;;5.85;3.00;;;;;;;;;;4987095;28;20429;-79
2023/12/05 07:11:57;;;;;;;4.47;2.58;;;;;;;;;;4989767;28;20047;-81
2023/12/05 07:14:22;;;;;;;6.03;3.00;;;;;;;;;;4989029;28;20401;-79
2023/12/05 07:16:48;;;;;;;5.57;2.72;;;;;;;;;;4988065;28;20018;-81
2023/12/05 07:19:14;;;;;;;6.68;2.92;;;;;;;;;;4992501;28;20049;-80
2023/12/05 07:21:40;;;;;;;5.68;2.30;;;;;;;;;;4988479;28;20481;-79
2023/12/05 07:24:06;;;;;;;5.65;2.67;;;;;;;;;;4984462;28;20026;-79
2023/12/05 07:26:32;;;;;;;4.88;2.33;;;;;;;;;;4988704;28;20035;-79
2023/12/05 07:28:58;;;;;;;3.78;2.67;;;;;;;;;;4984238;28;20038;-80
2023/12/05 07:31:24;;;;;;;7.35;2.65;;;;;;;;;;4982714;28;20113;-79
2023/12/05 07:33:50;;;;;;;4.85;2.30;;;;;;;;;;4987193;28;20022;-79
2023/12/05 07:36:16;;;;;;;7.18;2.80;;;;;;;;;;4981614;28;20026;-80
2023/12/05 07:38:42;;;;;;;7.95;3.47;;;;;;;;;;4985895;28;20305;-80
2023/12/05 07:41:17;;;;;;;8.48;2.80;;;;;;;;;;4980989;28;20572;-80
2023/12/05 07:43:43;;;;;;;4.70;2.65;;;;;;;;;;4980250;28;20118;-81
2023/12/05 07:46:09;;;;;;;7.70;2.72;;;;;;;;;;4984515;28;20811;-80
2023/12/05 07:48:35;;;;;;;6.05;2.65;;;;;;;;;;4984228;28;20034;-79
2023/12/05 07:51:01;;;;;;;7.45;4.38;;;;;;;;;;4980615;28;20031;-79
2023/12/05 07:53:27;;;;;;;7.97;3.20;;;;;;;;;;4984862;28;20096;-80
2023/12/05 07:55:53;;;;;;;8.55;2.83;;;;;;;;;;4977920;28;20141;-80
2023/12/05 07:58:19;;;;;;;5.07;3.10;;;;;;;;;;4979696;28;20710;-81
2023/12/05 08:00:45;;;;;;;3.80;2.75;;;;;;;;;;4982319;28;21786;-80
2023/12/05 08:03:13;;;;;;;6.55;2.63;;;;;;;;;;4983280;28;20125;-80
2023/12/05 08:05:39;;;;;;;4.88;2.03;;;;;;;;;;4980442;28;20037;-80
2023/12/05 08:08:05;;;;;;;4.68;2.40;;;;;;;;;;4981197;28;20026;-80
2023/12/05 08:10:31;;;;;;;4.93;2.33;;;;;;;;;;4982767;28;20038;-80
2023/12/05 08:12:57;;;;;;;2.67;1.67;;;;;;;;;;4987775;28;20034;-80
2023/12/05 08:15:23;;;;;;;3.60;1.92;;;;;;;;;;4988170;28;20089;-80
2023/12/05 08:17:49;;;;;;;2.20;1.30;;;;;;;;;;4987947;28;20046;-80
2023/12/05 08:20:15;;;;;;;4.55;1.58;;;;;;;;;;4988357;28;21257;-81
2023/12/05 08:22:41;;;;;;;9.02;1.75;;;;;;;;;;4991438;28;20038;-80
2023/12/05 08:25:11;;;;;;;4.63;1.92;;;;;;;;;;4993222;28;20029;-80
2023/12/05 08:27:37;;;;;;;3.83;1.95;;;;;;;;;;4989827;28;20041;-81
2023/12/05 08:30:03;;;;;;;6.00;1.77;;;;;;;;;;4998228;28;20034;-80
2023/12/05 08:32:30;;;;;;;2.70;1.30;;;;;;;;;;4994382;28;20029;-80
2023/12/05 08:34:56;;;;;;;3.53;1.95;;;;;;;;;;4994075;28;20038;-81
2023/12/05 08:37:23;;;;;;;3.22;1.75;;;;;;;;;;4992411;28;20042;-81
2023/12/05 08:39:49;;;;;;;3.53;1.50;;;;;;;;;;4990122;28;20548;-81
2023/12/05 08:42:14;;;;;;;6.68;2.33;;;;;;;;;;4994656;28;20050;-81
2023/12/05 08:44:40;;;;;;;4.28;1.92;;;;;;;;;;4992620;28;20038;-80
2023/12/05 08:47:06;;;;;;;7.93;1.98;;;;;;;;;;4978663;28;20037;-80
2023/12/05 08:49:32;;;;;;;3.17;2.35;;;;;;;;;;4995931;28;20093;-81
2023/12/05 08:51:58;;;;;;;4.35;2.47;;;;;;;;;;4991911;28;20033;-81
2023/12/05 08:54:24;;;;;;;4.95;1.60;;;;;;;;;;4993559;28;20046;-81
2023/12/05 08:56:51;;;;;;;8.32;3.33;;;;;;;;;;5005102;28;20488;-80
2023/12/05 08:59:17;;;;;;;10.73;5.55;;;;;;;;;;5003524;28;20033;-80
2023/12/05 09:01:47;;;;;;;10.15;5.20;;;;;;;;;;5003332;28;20031;-81
2023/12/05 09:04:12;;;;;;;8.23;3.88;;;;;;;;;;5000404;28;20034;-81
2023/12/05 09:06:38;;;;;;;4.93;2.65;;;;;;;;;;4997656;28;20030;-81
2023/12/05 09:09:04;;;;;;;5.15;2.00;;;;;;;;;;4977162;28;20034;-81
2023/12/05 09:11:30;;;;;;;4.50;1.92;;;;;;;;;;4997708;28;20053;-81
2023/12/05 09:13:58;;;;;;;3.38;1.73;;;;;;;;;;4998754;28;20029;-81
2023/12/05 09:16:24;;;;;;;4.50;1.55;;;;;;;;;;4997753;28;20085;-80
2023/12/05 09:18:51;;;;;;;3.10;1.85;;;;;;;;;;4994953;28;20117;-80
2023/12/05 09:21:17;;;;;;;5.40;2.80;;;;;;;;;;4996834;28;20090;-81
2023/12/05 09:23:43;;;;;;;10.35;4.40;;;;;;;;;;4998520;28;20034;-80
2023/12/05 09:26:09;;;;;;;6.20;2.72;;;;;;;;;;4995535;28;20041;-80
2023/12/05 09:28:35;;;;;;;9.98;2.88;;;;;;;;;;4995455;28;20030;-81
2023/12/05 09:31:01;;;;;;;8.80;3.42;;;;;;;;;;4991433;28;20050;-81
2023/12/05 09:33:27;;;;;;;5.32;3.22;;;;;;;;;;4996334;28;20034;-82
2023/12/05 09:35:53;;;;;;;6.65;3.42;;;;;;;;;;4997706;28;20070;-81
2023/12/05 09:38:19;;;;;;;6.85;3.90;;;;;;;;;;4979378;28;20030;-80
2023/12/05 09:40:45;;;;;;;7.38;3.33;;;;;;;;;;4993522;28;20081;-81
2023/12/05 09:43:11;;;;;;;7.82;3.17;;;;;;;;;;4995645;28;20086;-81
2023/12/05 09:45:39;;;;;;;7.32;3.33;;;;;;;;;;4993876;28;20062;-81
2023/12/05 09:48:08;;;;;;;10.32;2.50;;;;;;;;;;4995655;28;20157;-80
2023/12/05 09:50:35;;;;;;;7.55;2.92;;;;;;;;;;4994514;28;20034;-80
2023/12/05 09:53:02;;;;;;;5.13;2.35;;;;;;;;;;4992595;28;20038;-81
2023/12/05 09:55:28;;;;;;;4.10;1.52;;;;;;;;;;4990918;28;20014;-80
2023/12/05 09:57:56;;;;;;;6.82;1.95;;;;;;;;;;4996722;28;20044;-80
2023/12/05 10:00:23;;;;;;;3.47;1.75;;;;;;;;;;4995647;28;20537;-81
2023/12/05 10:02:52;;;;;;;4.50;1.95;;;;;;;;;;4996223;28;20031;-81
2023/12/05 10:05:20;;;;;;;3.10;1.48;;;;;;;;;;4998310;28;20034;-82
2023/12/05 10:07:47;;;;;;;5.20;2.28;;;;;;;;;;4994431;28;20022;-82
2023/12/05 10:10:14;;;;;;;3.80;2.40;;;;;;;;;;4996389;28;20107;-80
2023/12/05 10:12:41;;;;;;;4.25;2.00;;;;;;;;;;4996261;28;20044;-80
2023/12/05 10:15:07;;;;;;;4.63;1.85;;;;;;;;;;4997381;28;20034;-80
2023/12/05 10:17:34;;;;;;;15.95;3.03;;;;;;;;;;4994860;28;20035;-81
2023/12/05 10:20:00;;;;;;;15.82;3.30;;;;;;;;;;4997024;28;20033;-81
2023/12/05 10:22:26;;;;;;;12.52;2.90;;;;;;;;;;4997559;28;20117;-81
2023/12/05 10:24:55;;;;;;;11.25;2.85;;;;;;;;;;4995483;28;20054;-82
2023/12/05 10:27:21;;;;;;;1.88;0.95;;;;;;;;;;4995648;28;20030;-81
2023/12/05 10:29:47;;;;;;;1.63;1.08;;;;;;;;;;4995055;28;20481;-80
2023/12/05 10:32:13;;;;;;;5.68;1.40;;;;;;;;;;4997670;28;20491;-80
2023/12/05 10:34:47;;;;;;;9.40;1.73;;;;;;;;;;4996572;28;20046;-81
2023/12/05 10:37:13;;;;;;;4.70;1.70;;;;;;;;;;4992574;28;20022;-81
2023/12/05 10:39:39;;;;;;;3.35;1.33;;;;;;;;;;4999752;28;20038;-81
2023/12/05 10:42:07;;;;;;;2.20;0.85;;;;;;;;;;4998793;28;20094;-82
2023/12/05 10:44:39;;;;;;;1.23;0.82;;;;;;;;;;4997169;28;20027;-81
2023/12/05 10:47:06;;;;;;;1.63;1.13;;;;;;;;;;4997159;28;20113;-82
2023/12/05 10:49:34;;;;;;;4.13;1.08;;;;;;;;;;4995811;28;20049;-82
2023/12/05 10:52:02;;;;;;;5.72;0.90;;;;;;;;;;4997449;28;20038;-81
2023/12/05 10:54:27;;;;;;;2.67;1.08;;;;;;;;;;4997725;28;20057;-82
2023/12/05 10:57:00;;;;;;;2.60;1.20;;;;;;;;;;4994484;28;20468;-82
2023/12/05 10:59:29;;;;;;;1.83;0.93;;;;;;;;;;4982321;28;20061;-81
2023/12/05 11:01:56;;;;;;;2.53;0.80;;;;;;;;;;5000727;28;23391;-81
2023/12/05 11:04:22;;;;;;;0.95;0.57;;;;;;;;;;4998000;28;20082;-81
2023/12/05 11:06:48;;;;;;;4.63;0.80;;;;;;;;;;4994487;28;20043;-82
2023/12/05 11:09:15;;;;;;;1.92;0.70;;;;;;;;;;4993264;28;20034;-82
2023/12/05 11:11:42;;;;;;;3.55;0.73;;;;;;;;;;4996269;28;20042;-82
2023/12/05 11:14:11;;;;;;;1.52;0.68;;;;;;;;;;4993765;28;20026;-81
2023/12/05 11:16:39;;;;;;;3.92;0.60;;;;;;;;;;4975572;28;20500;-82
2023/12/05 11:19:24;;;;;;;3.20;0.57;;;;;;;;;;4987719;28;20034;-82
2023/12/05 11:21:56;;;;;;;1.95;0.43;;;;;;;;;;4994427;28;20089;-81
2023/12/05 11:24:41;;;;;;;0.82;0.57;;;;;;;;;;4996203;28;20465;-81
2023/12/05 11:27:10;;;;;;;2.28;0.45;;;;;;;;;;4995795;28;20097;-83
2023/12/05 11:30:03;;;;;;;7.10;1.05;;;;;;;;;;4989640;28;20050;-81
2023/12/05 11:32:44;;;;;;;2.63;0.90;;;;;;;;;;4995707;28;20027;-82
2023/12/05 11:35:19;;;;;;;6.45;1.08;;;;;;;;;;4995892;28;20186;-81
2023/12/05 11:37:45;;;;;;;1.63;1.20;;;;;;;;;;4992073;28;20053;-81
2023/12/05 11:40:11;;;;;;;10.88;2.00;;;6.70;99.90;;;;;;4994198;28;20030;-81
2023/12/05 11:42:38;;;;;;;2.35;0.90;;;;;;;;;;4995471;28;20038;-81
2023/12/05 11:45:22;;;;;;;2.83;0.80;;;;;;;;;;4978014;28;20014;-82
2023/12/05 11:47:48;;;;;;;2.83;1.02;;;;;;;;;;4996688;28;20061;-82
2023/12/05 11:50:17;;;;;;;0.80;0.57;;;;;;;;;;4994090;28;20060;-81
2023/12/05 11:52:44;;;;;;;1.05;0.40;;;;;;;;;;4993889;28;20049;-81
2023/12/05 11:55:12;;;;;;;0.98;0.20;;;;;;;;;;4994653;28;20025;-81
2023/12/05 11:57:38;;;;;;;1.13;0.43;;;;;;;;;;4993706;28;20489;-80
2023/12/05 12:00:07;;;;;;;0.85;0.25;;;;;;;;;;4994227;28;20089;-81
2023/12/05 12:02:33;;;;;;;1.40;0.40;;;;;;;;;;4994470;28;20109;-80
2023/12/05 12:05:05;;;;;;;3.60;0.65;;;;;;;;;;4992095;28;20145;-80
2023/12/05 12:07:31;;;;;;;3.20;0.32;;;;;;;;;;4994044;28;20040;-81
2023/12/05 12:09:57;;;;;;;1.27;0.40;;;;;;;;;;4992154;28;20030;-80
2023/12/05 12:12:23;;;;;;;3.25;0.60;;;;;;;;;;4992561;28;20037;-81
2023/12/05 12:14:49;;;;;;;5.82;0.45;;;;;;;;;;4995966;28;20113;-80
2023/12/05 12:17:15;;;;;;;0.63;0.30;;;;;;;;;;4991760;28;20058;-79
2023/12/05 12:19:41;;;;;;;1.67;0.60;;;;;;;;;;4994966;28;20053;-81
2023/12/05 12:22:08;;;;;;;2.58;0.63;;;6.70;99.90;;;;;;4992862;28;20034;-81
2023/12/05 12:24:34;;;;;;;0.57;0.50;;;;;;;;;;4993875;28;20030;-79
2023/12/05 12:27:01;;;;;;;0.93;0.52;;;;;;;;;;4998372;28;20019;-82
2023/12/05 12:29:27;;;;;;;5.75;0.50;;;;;;;;;;5003741;28;20098;-83
2023/12/05 12:32:04;;;;;;;6.70;0.90;;;;;;;;;;5001811;28;20089;-81
2023/12/05 12:34:30;;;;;;;1.17;0.40;;;;;;;;;;4996965;28;20037;-82
2023/12/05 12:36:57;;;;;;;1.67;0.40;;;;;;;;;;4994069;28;20046;-81
2023/12/05 12:39:25;;;;;;;0.85;0.55;;;;;;;;;;4992016;28;20042;-81
2023/12/05 12:41:53;;;;;;;1.08;0.38;;;;;;;;;;4995974;28;20037;-80
2023/12/05 12:44:20;;;;;;;1.55;0.50;;;;;;;;;;4984828;28;20049;-81
2023/12/05 12:46:46;;;;;;;1.25;0.40;;;;;;;;;;4994076;28;20027;-81
2023/12/05 12:49:12;;;;;;;3.35;0.70;;;;;;;;;;4997004;28;20026;-81
2023/12/05 12:51:40;;;;;;;1.02;0.30;;;;;;;;;;4995518;28;20038;-80
2023/12/05 12:54:07;;;;;;;4.22;0.60;;;;;;;;;;4992705;28;20039;-80
2023/12/05 12:56:33;;;;;;;0.50;0.20;;;;;;;;;;4996076;28;20193;-80
2023/12/05 12:59:02;;;;;;;5.15;1.35;;;;;;;;;;4996043;28;20053;-81
2023/12/05 13:01:29;;;;;;;12.95;3.63;;;;;;;;;;4988507;28;20053;-81
2023/12/05 13:03:55;;;;;;;10.43;3.15;;;;;;;;;;4993798;28;20027;-80
2023/12/05 13:06:21;;;;;;;6.50;2.33;;;;;;;;;;4996459;28;20030;-80
2023/12/05 13:08:51;;;;;;;2.65;1.25;;;;;;;;;;4983769;28;20023;-79
2023/12/05 13:11:17;;;;;;;2.17;0.68;;;;;;;;;;4981858;28;20499;-81
2023/12/05 13:13:44;;;;;;;0.50;0.32;;;;;;;;;;4989476;28;20456;-79
2023/12/05 13:16:11;;;;;;;2.08;0.30;;;;;;;;;;4988338;28;20428;-79
2023/12/05 13:18:45;;;;;;;3.33;0.52;;;;;;;;;;4989506;28;20046;-81
2023/12/05 13:21:11;;;;;;;0.47;0.40;;;;;;;;;;4991767;28;20034;-80
2023/12/05 13:23:37;;;;;;;0.50;0.32;;;;;;;;;;4993345;28;20107;-81
2023/12/05 13:26:03;;;;;;;0.73;0.50;;;;;;;;;;4992152;28;20022;-81
2023/12/05 13:28:29;;;;;;;1.27;0.40;;;;;;;;;;4985677;28;20018;-80
2023/12/05 13:30:55;;;;;;;1.10;0.52;;;;;;;;;;4988834;28;20039;-80
2023/12/05 13:33:21;;;;;;;1.25;0.47;;;;;;;;;;4990493;28;20685;-78
2023/12/05 13:35:47;;;;;;;4.13;1.10;;;;;;;;;;4991382;28;20030;-81
2023/12/05 13:38:13;;;;;;;1.73;0.52;;;;;;;;;;4993192;28;20028;-79
2023/12/05 13:40:39;;;;;;;0.63;0.30;;;;;;;;;;4992724;28;20038;-80
2023/12/05 13:43:05;;;;;;;1.73;0.47;;;;;;;;;;4975917;28;20034;-80
2023/12/05 13:45:32;;;;;;;1.73;0.60;;;;;;;;;;4992686;28;20042;-80
2023/12/05 13:47:58;;;;;;;5.18;1.73;;;;;;;;;;4990063;28;20037;-79
2023/12/05 13:50:25;;;;;;;1.77;0.95;;;;;;;;;;4989760;28;20384;-81
2023/12/05 13:52:51;;;;;;;2.88;0.95;;;;;;;;;;4993328;28;20042;-78
2023/12/05 13:55:17;;;;;;;3.45;1.90;;;;;;;;;;4992852;28;20393;-80
2023/12/05 13:57:43;;;;;;;5.53;0.93;;;;;;;;;;4988742;28;20073;-81
2023/12/05 14:00:10;;;;;;;5.18;0.60;;;;;;;;;;4974127;28;20022;-80
2023/12/05 14:02:36;;;;;;;3.28;1.23;;;;;;;;;;4988887;28;20030;-81
2023/12/05 14:05:05;;;;;;;12.30;4.20;;;;;;;;;;4990757;28;20030;-80
2023/12/05 14:07:32;;;;;;;7.57;3.75;;;;;;;;;;4989500;28;20030;-80
2023/12/05 14:09:58;;;;;;;10.20;4.03;;;;;;;;;;4990829;28;20381;-79
2023/12/05 14:12:24;;;;;;;10.45;5.15;;;;;;;;;;4992855;28;20027;-82
2023/12/05 14:14:50;;;;;;;10.13;4.50;;;;;;;;;;4987220;28;20033;-80
2023/12/05 14:17:17;;;;;;;10.57;3.90;;;;;;;;;;4986163;28;20112;-79
2023/12/05 14:19:43;;;;;;;7.43;3.38;;;;;;;;;;4987568;28;20034;-79
2023/12/05 14:22:09;;;;;;;5.75;2.53;;;;;;;;;;4988419;28;20050;-82
2023/12/05 14:24:36;;;;;;;5.63;2.72;;;;;;;;;;4988339;28;20042;-80
2023/12/05 14:27:02;;;;;;;38.60;10.55;;;;;;;;;;4983796;28;20042;-80
2023/12/05 14:29:28;;;;;;;37.90;12.13;;;;;;;;;;4988990;28;20077;-79
2023/12/05 14:31:54;;;;;;;35.22;12.65;;;;;;;;;;4987937;28;20058;-79
2023/12/05 14:34:20;;;;;;;25.23;9.57;;;;;;;;;;4989997;28;20030;-79
2023/12/05 14:36:46;;;;;;;22.95;8.55;;;;;;;;;;4990465;28;20030;-79